CheckWX is a tool to help pilots better visualize weather data.  It is not intended as a substitute for an official pre-flight weather briefing.

05:17:46 UTC

ENSL METAR
Sleipner A Platform Heliport
Norway
Current

28 mins ago

ENSL 160450Z AUTO 17017KT 9999NDV BKN067/// BKN094/// 12/10 Q1010 W09/S3
Observed
Jun-16 @ 04:50 UTC
Wind
  • 170° at 17 KTS
Visibility
Cloud Levels
  • Broken at 6,700' AGL
  • Broken at 9,400' AGL
Temperature
12°C / 54°F
Dewpoint
10°C / 50°F
Humidity
88%
Altimeter
29.82" Hg
Pressure
1009.92 hPa
Previous

58 mins ago

ENSL 160420Z AUTO /////KT 9999NDV FEW092/// 12/10 Q1010 W09/S3
Observed
Jun-16 @ 04:20 UTC
Visibility
Cloud Levels
  • Few at 9,200' AGL
Temperature
12°C / 54°F
Dewpoint
10°C / 50°F
Humidity
88%
Altimeter
29.82" Hg
Pressure
1009.92 hPa
Previous

1 hour ago

ENSL 160350Z AUTO 15010G24KT 9999NDV NCD 12/10 Q1010 W09/S3
Observed
Jun-16 @ 03:50 UTC
Wind
  • 150° at 10 KTS
  • Gusting to 24 KTS
Visibility
Cloud Levels
  • Clear skies
Temperature
12°C / 54°F
Dewpoint
10°C / 50°F
Humidity
88%
Altimeter
29.82" Hg
Pressure
1009.92 hPa